Time;durP1;ratioP1;P1;durP2;ratioP2;P2;SDS_P1;SDS_P2;PMS_P1;PMS_P2;Temp;Humidity;BMP_temperature;BMP_pressure;BME280_temperature;BME280_humidity;BME280_pressure;Samples;Min_cycle;Max_cycle;Signal;HPM_P1;HPM_P2
2023/03/26 00:00:49;;;;;;;3.63;1.38;;;18.90;46.80;;;;;;5050999;28;20220;-77
2023/03/26 00:03:17;;;;;;;5.30;1.23;;;18.90;46.80;;;;;;5051786;28;20192;-73
2023/03/26 00:05:46;;;;;;;3.63;1.35;;;18.90;46.90;;;;;;5052257;28;20600;-74
2023/03/26 00:08:15;;;;;;;5.32;1.52;;;18.90;46.90;;;;;;5051000;28;20199;-77
2023/03/26 00:10:43;;;;;;;3.38;1.33;;;18.90;46.90;;;;;;5052242;28;20215;-77
2023/03/26 00:13:12;;;;;;;4.32;1.40;;;18.90;46.80;;;;;;5051537;28;20719;-78
2023/03/26 00:15:40;;;;;;;2.30;1.00;;;18.90;46.90;;;;;;5050983;28;20684;-78
2023/03/26 00:18:09;;;;;;;3.38;1.50;;;18.90;46.90;;;;;;5050943;28;20275;-77
2023/03/26 00:20:37;;;;;;;4.85;1.48;;;18.90;46.90;;;;;;5051006;28;20585;-77
2023/03/26 00:23:04;;;;;;;2.03;1.10;;;18.90;46.90;;;;;;5051883;28;20188;-76
2023/03/26 00:25:33;;;;;;;5.28;1.10;;;18.90;47.00;;;;;;5055511;28;20696;-77
2023/03/26 00:28:00;;;;;;;2.83;1.23;;;18.90;46.90;;;;;;5055990;28;20188;-77
2023/03/26 00:30:29;;;;;;;2.30;1.17;;;18.90;47.00;;;;;;5055493;28;20222;-75
2023/03/26 00:32:56;;;;;;;3.83;1.17;;;18.90;46.90;;;;;;5055257;28;20705;-77
2023/03/26 00:35:23;;;;;;;2.40;1.20;;;18.90;47.00;;;;;;5055909;28;20219;-76
2023/03/26 00:37:52;;;;;;;1.92;1.10;;;18.90;47.00;;;;;;5055647;28;20196;-77
2023/03/26 00:40:19;;;;;;;3.55;1.20;;;18.90;47.10;;;;;;5055517;28;20215;-77
2023/03/26 00:42:46;;;;;;;3.42;1.13;;;18.90;47.00;;;;;;5055308;28;20616;-77
2023/03/26 00:45:14;;;;;;;3.15;1.20;;;18.90;47.00;;;;;;5055460;28;20219;-77
2023/03/26 00:47:44;;;;;;;4.40;1.40;;;18.90;47.10;;;;;;5038001;28;20195;-77
2023/03/26 00:50:14;;;;;;;3.75;1.65;;;18.90;47.10;;;;;;5054272;28;20306;-77
2023/03/26 00:52:41;;;;;;;3.00;1.40;;;18.80;47.00;;;;;;5054325;28;20227;-74
2023/03/26 00:55:09;;;;;;;2.58;1.20;;;18.90;47.10;;;;;;5055090;28;20223;-77
2023/03/26 00:57:37;;;;;;;3.25;1.33;;;18.80;47.00;;;;;;5036635;28;20196;-76
2023/03/26 01:00:15;;;;;;;3.05;1.10;;;18.80;47.10;;;;;;5053800;28;20693;-76
2023/03/26 01:02:45;;;;;;;2.30;1.27;;;18.80;47.10;;;;;;5055323;28;20246;-77
2023/03/26 01:05:41;;;;;;;3.05;1.27;;;18.80;47.10;;;;;;5055321;28;20215;-77
2023/03/26 01:08:17;;;;;;;2.50;1.50;;;18.80;47.10;;;;;;5054877;28;20192;-77
2023/03/26 01:10:49;;;;;;;1.95;1.42;;;18.80;47.10;;;;;;5055198;28;20230;-78
2023/03/26 01:13:18;;;;;;;2.35;1.15;;;18.80;47.10;;;;;;5054982;28;20211;-77
2023/03/26 01:15:49;;;;;;;3.30;1.40;;;18.80;47.10;;;;;;5055115;28;20255;-75
2023/03/26 01:18:25;;;;;;;3.63;1.10;;;18.80;47.10;;;;;;5054479;28;20203;-77
2023/03/26 01:21:03;;;;;;;1.73;1.20;;;18.80;47.10;;;;;;5053079;28;20227;-78
2023/03/26 01:23:39;;;;;;;2.53;1.20;;;18.80;47.10;;;;;;5054607;28;20191;-77
2023/03/26 01:26:20;;;;;;;3.45;1.20;;;18.80;47.10;;;;;;5053776;28;20218;-76
2023/03/26 01:28:47;;;;;;;1.92;1.20;;;18.80;47.10;;;;;;5054785;28;20195;-77
2023/03/26 01:31:23;;;;;;;3.60;1.23;;;18.80;47.10;;;;;;5054375;28;20215;-76
2023/03/26 01:34:01;;;;;;;1.65;1.10;;;18.70;47.00;;;;;;5054275;28;20235;-77
2023/03/26 01:36:37;;;;;;;4.18;1.30;;;18.70;47.10;;;;;;5053483;28;20192;-77
2023/03/26 01:39:17;;;;;;;3.60;1.20;;;18.70;47.10;;;;;;5054624;28;20188;-77
2023/03/26 01:41:49;;;;;;;2.17;1.00;;;18.70;47.10;;;;;;5054634;28;20658;-78
2023/03/26 01:44:24;;;;;;;1.88;1.00;;;18.70;47.10;;;;;;5054400;28;20196;-77
2023/03/26 01:46:53;;;;;;;2.78;1.23;;;18.70;47.20;;;;;;5054494;28;20191;-78
2023/03/26 01:49:20;;;;;;;2.45;1.10;;;18.70;47.20;;;;;;5054273;28;20198;-77
2023/03/26 01:51:48;;;;;;;2.85;1.10;;;18.70;47.10;;;;;;5054446;28;20191;-76
2023/03/26 01:54:19;;;;;;;2.28;1.10;;;18.70;47.10;;;;;;5053050;28;20242;-77
2023/03/26 01:57:01;;;;;;;4.70;1.35;;;18.70;47.30;;;;;;5053974;28;20668;-76
2023/03/26 01:59:52;;;;;;;1.70;1.17;;;18.70;47.20;;;;;;5054088;28;20706;-77
2023/03/26 02:02:27;;;;;;;3.58;1.10;;;18.70;47.10;;;;;;5053232;28;20199;-77
2023/03/26 02:05:00;;;;;;;2.70;1.30;;;18.70;47.20;;;;;;5053838;28;20599;-78
2023/03/26 02:07:36;;;;;;;2.33;1.27;;;18.70;47.20;;;;;;5052975;28;20191;-77
2023/03/26 02:10:09;;;;;;;2.70;1.00;;;18.70;47.20;;;;;;5053965;28;20251;-77
2023/03/26 02:12:38;;;;;;;1.98;1.13;;;18.70;47.30;;;;;;5053950;28;20271;-76
2023/03/26 02:15:06;;;;;;;2.50;1.13;;;18.70;47.30;;;;;;5053797;28;20634;-72
2023/03/26 02:17:34;;;;;;;2.17;1.20;;;18.70;47.30;;;;;;5053648;28;20192;-77
2023/03/26 02:20:05;;;;;;;2.60;0.90;;;18.60;47.20;;;;;;5052742;28;20211;-78
2023/03/26 02:22:39;;;;;;;3.00;1.30;;;18.60;47.20;;;;;;5053443;28;20184;-76
2023/03/26 02:25:08;;;;;;;3.47;1.25;;;18.70;47.30;;;;;;5053630;28;20762;-77
2023/03/26 02:27:37;;;;;;;2.05;1.30;;;18.60;47.20;;;;;;5053718;28;20646;-74
2023/03/26 02:30:06;;;;;;;3.80;1.30;;;18.70;47.30;;;;;;5053571;28;20219;-77
2023/03/26 02:32:34;;;;;;;2.00;1.10;;;18.60;47.20;;;;;;5052174;28;20200;-77
2023/03/26 02:35:01;;;;;;;3.13;1.50;;;18.60;47.30;;;;;;5053183;28;20639;-77
2023/03/26 02:37:29;;;;;;;2.17;1.25;;;18.60;47.30;;;;;;5053524;28;20199;-77
2023/03/26 02:39:56;;;;;;;4.25;1.40;;;18.60;47.20;;;;;;5053301;28;20302;-77
2023/03/26 02:42:23;;;;;;;2.45;1.08;;;18.60;47.20;;;;;;5053145;28;20199;-77
2023/03/26 02:44:52;;;;;;;5.78;1.30;;;18.60;47.20;;;;;;5053038;28;20216;-77
2023/03/26 02:47:20;;;;;;;3.67;1.15;;;18.60;47.20;;;;;;5051460;28;20195;-75
2023/03/26 02:49:47;;;;;;;2.75;1.00;;;18.60;47.30;;;;;;5044600;28;20225;-77
2023/03/26 02:52:17;;;;;;;3.50;1.52;;;18.60;47.20;;;;;;5033206;28;20192;-77
2023/03/26 02:54:44;;;;;;;4.50;1.13;;;18.60;47.20;;;;;;5033183;28;20242;-77
2023/03/26 02:57:11;;;;;;;3.15;1.10;;;18.60;47.20;;;;;;5044004;28;20249;-77
2023/03/26 02:59:39;;;;;;;2.33;1.05;;;18.60;47.10;;;;;;5052780;28;20258;-76
2023/03/26 03:02:08;;;;;;;1.38;0.80;;;18.60;47.10;;;;;;5052861;28;20253;-77
2023/03/26 03:04:35;;;;;;;3.47;1.00;;;18.60;47.10;;;;;;5052703;28;20288;-77
2023/03/26 03:07:02;;;;;;;2.10;1.17;;;18.60;47.10;;;;;;5052974;28;20192;-77
2023/03/26 03:09:29;;;;;;;5.10;1.20;;;18.60;47.00;;;;;;5052539;28;20195;-77
2023/03/26 03:11:56;;;;;;;2.58;1.10;;;18.50;47.00;;;;;;5052670;28;20184;-76
2023/03/26 03:14:24;;;;;;;3.65;1.08;;;18.60;47.00;;;;;;5052278;28;20620;-77
2023/03/26 03:16:52;;;;;;;2.95;1.15;;;18.50;46.90;;;;;;5052497;28;20196;-77
2023/03/26 03:19:21;;;;;;;3.17;1.10;;;18.50;46.80;;;;;;5052675;28;20215;-76
2023/03/26 03:21:48;;;;;;;2.63;1.30;;;18.50;46.90;;;;;;5052744;28;20569;-77
2023/03/26 03:24:17;;;;;;;4.40;1.42;;;18.50;46.80;;;;;;5052491;28;20207;-77
2023/03/26 03:26:46;;;;;;;3.20;1.17;;;18.50;46.80;;;;;;5052644;28;20188;-77
2023/03/26 03:29:13;;;;;;;5.45;1.15;;;18.50;46.80;;;;;;5052234;28;20282;-73
2023/03/26 03:31:41;;;;;;;4.38;1.38;;;18.50;46.90;;;;;;5051306;28;20195;-76
2023/03/26 03:34:08;;;;;;;3.05;1.00;;;18.50;46.80;;;;;;5052086;28;20289;-77
2023/03/26 03:36:38;;;;;;;2.05;1.08;;;18.50;46.80;;;;;;5051131;28;20219;-77
2023/03/26 03:39:05;;;;;;;4.07;1.30;;;18.50;46.80;;;;;;5052443;28;20215;-77
2023/03/26 03:41:32;;;;;;;3.67;1.23;;;18.50;46.70;;;;;;5051114;28;20823;-77
2023/03/26 03:44:00;;;;;;;3.42;1.35;;;18.50;46.70;;;;;;5052277;28;20214;-77
2023/03/26 03:46:28;;;;;;;3.33;0.98;;;18.50;46.70;;;;;;5052014;28;20586;-77
2023/03/26 03:48:56;;;;;;;3.75;1.13;;;18.50;46.60;;;;;;5034744;28;20203;-78
2023/03/26 03:51:23;;;;;;;3.67;0.98;;;18.50;46.70;;;;;;5051958;28;20226;-77
2023/03/26 03:53:54;;;;;;;2.28;1.10;;;18.50;46.60;;;;;;5052212;28;20609;-77
2023/03/26 03:56:22;;;;;;;3.35;1.05;;;18.40;46.60;;;;;;5051854;28;20216;-77
2023/03/26 03:58:50;;;;;;;5.18;1.45;;;18.40;46.60;;;;;;5051868;28;20192;-77
2023/03/26 04:01:21;;;;;;;3.75;1.50;;;18.40;46.50;;;;;;5052138;28;20223;-76
2023/03/26 04:03:49;;;;;;;4.70;1.13;;;18.40;46.50;;;;;;5052197;28;20195;-76
2023/03/26 04:06:18;;;;;;;7.05;1.30;;;18.50;46.60;;;;;;5051770;28;20638;-77
2023/03/26 04:08:46;;;;;;;4.10;1.13;;;18.40;46.50;;;;;;5052143;28;20234;-77
2023/03/26 04:11:14;;;;;;;5.28;1.30;;;18.40;46.60;;;;;;5050678;28;20250;-77
2023/03/26 04:13:42;;;;;;;8.25;1.80;;;18.40;46.50;;;;;;5051973;28;20219;-77
2023/03/26 04:16:10;;;;;;;3.38;1.05;;;18.40;46.50;;;;;;5051643;28;20617;-77
2023/03/26 04:18:37;;;;;;;3.70;1.20;;;18.40;46.50;;;;;;5051739;28;20203;-77
2023/03/26 04:21:06;;;;;;;5.72;1.35;;;18.40;46.50;;;;;;5052012;28;20237;-77
2023/03/26 04:23:34;;;;;;;3.38;1.20;;;18.40;46.40;;;;;;5033292;28;20677;-76
2023/03/26 04:26:05;;;;;;;3.40;1.30;;;18.40;46.50;;;;;;5050553;28;20219;-76
2023/03/26 04:28:41;;;;;;;4.32;1.65;;;18.40;46.40;;;;;;5050558;28;20249;-74
2023/03/26 04:31:12;;;;;;;4.40;1.45;;;18.40;46.50;;;;;;5050642;28;20250;-78
2023/03/26 04:33:39;;;;;;;2.80;1.35;;;18.40;46.40;;;;;;5050247;28;20589;-78
2023/03/26 04:36:09;;;;;;;3.15;1.40;;;18.40;46.50;;;;;;5050641;28;20223;-76
2023/03/26 04:38:42;;;;;;;4.72;1.38;;;18.40;46.70;;;;;;5051861;28;20207;-77
2023/03/26 04:41:11;;;;;;;2.75;1.05;;;18.40;46.50;;;;;;5051929;28;20223;-76
2023/03/26 04:43:46;;;;;;;3.63;1.30;;;18.40;46.40;;;;;;5051485;28;20578;-78
2023/03/26 04:46:13;;;;;;;2.50;1.00;;;18.40;46.50;;;;;;5051707;28;20218;-77
2023/03/26 04:48:40;;;;;;;4.13;1.30;;;18.40;47.10;;;;;;5050320;28;20187;-77
2023/03/26 04:51:08;;;;;;;5.47;1.40;;;18.30;46.40;;;;;;5051457;28;20278;-77
2023/03/26 04:53:36;;;;;;;6.20;1.30;;;18.30;46.40;;;;;;5051375;28;20646;-77
2023/03/26 04:56:11;;;;;;;5.50;1.55;;;18.30;46.40;;;;;;5051356;28;20605;-77
2023/03/26 04:58:41;;;;;;;5.07;1.70;;;18.30;46.40;;;;;;5051422;28;20241;-76
2023/03/26 05:01:10;;;;;;;8.43;1.80;;;18.30;46.40;;;;;;5051074;28;20830;-77
2023/03/26 05:03:39;;;;;;;3.15;1.20;;;18.30;46.40;;;;;;5050654;28;20699;-76
2023/03/26 05:06:08;;;;;;;5.20;1.55;;;18.30;46.40;;;;;;5033983;28;20227;-77
2023/03/26 05:08:35;;;;;;;4.85;1.45;;;18.30;46.40;;;;;;5051615;28;20245;-76
2023/03/26 05:11:06;;;;;;;4.93;1.48;;;18.30;46.40;;;;;;5051540;28;20239;-77
2023/03/26 05:13:33;;;;;;;5.75;1.45;;;18.40;46.50;;;;;;5053590;28;20703;-77
2023/03/26 05:16:02;;;;;;;5.18;1.70;;;18.30;46.40;;;;;;5053769;28;20239;-76
2023/03/26 05:18:31;;;;;;;7.35;1.70;;;18.30;46.40;;;;;;5054977;28;20188;-77
2023/03/26 05:20:58;;;;;;;6.65;1.50;;;18.30;46.40;;;;;;5055012;28;20215;-77
2023/03/26 05:23:25;;;;;;;7.78;1.83;;;18.30;46.40;;;;;;5053316;28;20192;-76
2023/03/26 05:25:52;;;;;;;8.82;2.00;;;18.30;46.40;;;;;;5054952;28;20231;-75
2023/03/26 05:28:23;;;;;;;7.60;1.73;;;18.30;46.40;;;;;;5054937;28;20184;-78
2023/03/26 05:30:51;;;;;;;4.97;1.73;;;18.30;46.40;;;;;;5054377;28;20274;-77
2023/03/26 05:33:22;;;;;;;6.13;1.65;;;18.30;46.40;;;;;;5054245;28;20656;-77
2023/03/26 05:35:59;;;;;;;6.03;1.58;;;18.30;46.50;;;;;;5054613;28;20239;-77
2023/03/26 05:38:28;;;;;;;7.22;1.85;;;18.30;46.40;;;;;;5054685;28;20245;-72
2023/03/26 05:40:58;;;;;;;8.23;1.70;;;18.30;46.40;;;;;;5054347;28;20255;-78
2023/03/26 05:43:26;;;;;;;6.13;1.60;;;18.30;46.50;;;;;;5054539;28;20223;-77
2023/03/26 05:45:53;;;;;;;5.53;1.77;;;18.30;46.40;;;;;;5053330;28;20700;-77
2023/03/26 05:48:23;;;;;;;6.60;1.73;;;18.30;46.50;;;;;;5054040;28;20192;-77
2023/03/26 05:50:51;;;;;;;7.80;1.83;;;18.30;46.40;;;;;;5054615;28;20739;-78
2023/03/26 05:53:19;;;;;;;7.72;1.80;;;18.30;46.50;;;;;;5054105;28;20195;-77
2023/03/26 05:55:49;;;;;;;8.13;1.70;;;18.20;46.40;;;;;;5054317;28;20318;-78
2023/03/26 05:58:16;;;;;;;5.80;2.22;;;18.30;46.50;;;;;;5054356;28;20192;-77
2023/03/26 06:00:47;;;;;;;5.80;2.03;;;18.20;46.40;;;;;;5052944;28;20220;-77
2023/03/26 06:03:15;;;;;;;9.95;2.33;;;18.20;46.40;;;;;;5053840;28;20237;-77
2023/03/26 06:05:44;;;;;;;7.65;1.75;;;18.20;46.40;;;;;;5054058;28;20250;-77
2023/03/26 06:08:11;;;;;;;6.97;2.00;;;18.20;46.40;;;;;;5054115;28;20219;-77
2023/03/26 06:10:39;;;;;;;10.32;2.15;;;18.20;46.40;;;;;;5054065;28;20219;-78
2023/03/26 06:13:06;;;;;;;7.80;2.28;;;18.20;46.40;;;;;;5053707;28;20187;-77
2023/03/26 06:15:33;;;;;;;7.03;2.03;;;18.20;46.40;;;;;;5053828;28;20755;-78
2023/03/26 06:18:01;;;;;;;8.52;1.63;;;18.20;46.40;;;;;;5053859;28;20188;-77
2023/03/26 06:20:28;;;;;;;11.07;2.22;;;18.20;46.50;;;;;;5053564;28;20215;-77
2023/03/26 06:22:57;;;;;;;8.70;2.08;;;18.20;46.50;;;;;;5035550;28;20195;-78
2023/03/26 06:25:24;;;;;;;8.30;2.65;;;18.20;46.50;;;;;;5053825;28;20223;-77
2023/03/26 06:27:51;;;;;;;8.32;2.30;;;18.20;46.50;;;;;;5053599;28;20218;-77
2023/03/26 06:30:19;;;;;;;10.55;2.47;;;18.20;46.50;;;;;;5052147;28;20593;-77
2023/03/26 06:32:46;;;;;;;10.05;2.20;;;18.20;46.50;;;;;;5051817;28;20235;-76
2023/03/26 06:35:13;;;;;;;6.65;1.90;;;18.20;46.50;;;;;;5052363;28;20235;-77
2023/03/26 06:37:41;;;;;;;6.10;1.88;;;18.20;46.50;;;;;;5052237;28;20245;-77
2023/03/26 06:40:11;;;;;;;7.60;2.15;;;18.20;46.60;;;;;;5053093;28;20776;-76
2023/03/26 06:42:39;;;;;;;7.05;1.95;;;18.20;46.50;;;;;;5053352;28;20192;-77
2023/03/26 06:45:07;;;;;;;6.13;2.05;;;18.20;46.50;;;;;;5053049;28;20223;-78
2023/03/26 06:47:35;;;;;;;7.55;1.92;;;18.20;46.50;;;;;;5052207;28;20653;-77
2023/03/26 06:50:02;;;;;;;8.48;2.10;;;18.20;46.50;;;;;;5053293;28;20230;-77
2023/03/26 06:52:29;;;;;;;7.15;1.80;;;18.20;46.50;;;;;;5052926;28;20195;-77
2023/03/26 06:54:56;;;;;;;7.68;1.88;;;18.10;46.40;;;;;;5052761;28;20273;-77
2023/03/26 06:57:25;;;;;;;9.40;1.83;;;18.20;46.50;;;;;;5052930;28;20242;-77
2023/03/26 06:59:52;;;;;;;6.55;2.08;;;18.10;46.50;;;;;;5052733;28;20184;-77
2023/03/26 07:02:19;;;;;;;5.15;1.75;;;18.10;46.40;;;;;;5052744;28;20187;-77
2023/03/26 07:04:47;;;;;;;7.43;2.30;;;18.20;46.60;;;;;;5052687;28;20218;-77
2023/03/26 07:07:14;;;;;;;6.85;2.05;;;18.10;46.40;;;;;;5051768;28;20188;-77
2023/03/26 07:09:41;;;;;;;6.72;1.83;;;18.10;46.50;;;;;;5052791;28;20196;-77
2023/03/26 07:12:09;;;;;;;6.65;1.95;;;18.10;46.40;;;;;;5052571;28;20195;-77
2023/03/26 07:14:37;;;;;;;5.68;1.38;;;18.10;46.40;;;;;;5051325;28;20230;-77
2023/03/26 07:17:05;;;;;;;5.03;1.67;;;18.20;46.50;;;;;;5052511;28;20216;-77
2023/03/26 07:19:33;;;;;;;5.53;1.70;;;18.10;46.40;;;;;;5052770;28;20192;-76
2023/03/26 07:22:01;;;;;;;3.15;1.38;;;18.10;46.40;;;;;;5052984;28;20818;-77
2023/03/26 07:24:28;;;;;;;7.60;1.58;;;18.10;46.50;;;;;;5052318;28;20210;-77
2023/03/26 07:27:02;;;;;;;5.82;1.27;;;18.10;46.50;;;;;;5052813;28;20215;-78
2023/03/26 07:29:37;;;;;;;6.00;1.73;;;18.10;46.40;;;;;;5052258;28;20664;-76
2023/03/26 07:32:16;;;;;;;6.50;1.88;;;18.10;46.40;;;;;;5051278;28;20697;-70
2023/03/26 07:34:53;;;;;;;4.32;1.67;;;18.10;46.40;;;;;;5031955;28;20215;-77
2023/03/26 07:37:33;;;;;;;5.15;1.45;;;18.10;46.40;;;;;;5032655;28;20192;-77
2023/03/26 07:40:06;;;;;;;4.88;1.30;;;18.10;46.50;;;;;;5032548;28;20218;-76
2023/03/26 07:42:55;;;;;;;5.65;1.50;;;18.10;46.40;;;;;;5013868;28;20539;-77
2023/03/26 07:45:28;;;;;;;4.00;1.60;;;18.10;46.40;;;;;;5032224;28;20223;-77
2023/03/26 07:47:58;;;;;;;4.40;1.30;;;18.10;46.40;;;;;;5032445;28;20193;-77
2023/03/26 07:50:27;;;;;;;4.85;1.45;;;18.10;46.50;;;;;;5030986;28;20730;-77
2023/03/26 07:52:54;;;;;;;4.68;1.50;;;18.10;46.40;;;;;;5032178;28;20654;-77
2023/03/26 07:55:23;;;;;;;7.15;1.52;;;18.10;46.50;;;;;;5032325;28;20232;-75
2023/03/26 07:58:01;;;;;;;4.45;1.45;;;18.10;46.50;;;;;;5014861;28;20596;-78
2023/03/26 08:00:35;;;;;;;5.57;1.30;;;18.10;46.50;;;;;;5032254;28;20274;-76
2023/03/26 08:06:34;;;;;;;3.10;1.30;;;18.10;46.50;;;;;;5179222;27;20569;-77
2023/03/26 08:09:09;;;;;;;4.72;1.45;;;18.10;46.50;;;;;;5172315;27;20210;-79
2023/03/26 08:11:45;;;;;;;2.95;1.35;;;18.10;46.50;;;;;;5172159;27;20214;-79
2023/03/26 08:14:33;;;;;;;2.90;1.38;;;18.10;46.50;;;;;;5171972;27;20195;-79
2023/03/26 08:17:06;;;;;;;3.47;1.52;;;18.10;46.50;;;;;;5171848;27;20297;-78
2023/03/26 08:19:44;;;;;;;3.50;1.23;;;18.10;46.50;;;;;;5171778;27;20274;-78
2023/03/26 08:22:19;;;;;;;4.18;1.40;;;18.10;46.60;;;;;;5172279;27;20246;-79
2023/03/26 08:25:16;;;;;;;5.47;1.33;;;18.10;46.60;;;;;;5171834;27;20218;-79
2023/03/26 08:27:51;;;;;;;3.35;1.30;;;18.00;46.40;;;;;;5171831;27;20671;-79
2023/03/26 08:30:22;;;;;;;3.15;1.20;;;18.00;46.40;;;;;;5171728;27;20215;-76
2023/03/26 08:32:55;;;;;;;3.72;1.40;;;18.00;46.50;;;;;;5172080;27;20211;-79
2023/03/26 08:35:22;;;;;;;2.97;1.30;;;18.00;46.40;;;;;;5171777;27;20211;-78
2023/03/26 08:37:52;;;;;;;5.55;1.70;;;18.10;46.60;;;;;;5171695;27;20206;-76
2023/03/26 08:40:47;;;;;;;4.55;1.58;;;18.10;46.50;;;;;;5171713;27;20243;-77
2023/03/26 08:43:50;;;;;;;4.82;1.30;;;18.00;46.50;;;;;;5171629;27;20191;-78
2023/03/26 08:46:55;;;;;;;4.45;1.30;;;18.00;46.50;;;;;;5171163;27;20234;-79
2023/03/26 08:49:56;;;;;;;3.55;1.27;;;18.00;46.50;;;;;;5156699;27;20191;-79
2023/03/26 08:52:49;;;;;;;5.03;1.38;;;18.10;46.60;;;;;;5066460;28;20195;-78
2023/03/26 08:55:52;;;;;;;4.05;1.30;;;18.00;46.50;;;;;;5066130;28;20223;-79
2023/03/26 08:58:54;;;;;;;3.92;1.45;;;18.00;46.60;;;;;;5066315;28;20591;-77
2023/03/26 09:01:52;;;;;;;3.72;1.35;;;18.00;46.50;;;;;;5065101;28;20250;-78
2023/03/26 09:05:09;;;;;;;3.63;1.48;;;18.00;46.60;;;;;;5065766;28;20716;-78
2023/03/26 09:08:04;;;;;;;6.63;1.73;;;18.00;46.60;;;;;;5006503;28;20193;-76
2023/03/26 09:10:51;;;;;;;6.60;1.35;;;18.00;46.60;;;;;;5006352;28;20217;-78
2023/03/26 09:13:47;;;;;;;4.10;1.40;;;18.00;46.60;;;;;;5006293;28;20242;-78
2023/03/26 09:16:37;;;;;;;5.38;1.52;;;18.00;46.70;;;;;;4943546;28;20225;-78
2023/03/26 09:19:35;;;;;;;6.45;1.42;;;18.00;46.70;;;;;;4935231;29;20699;-79
2023/03/26 09:22:26;;;;;;;3.05;1.30;;;18.00;46.70;;;;;;4935301;29;20224;-79
2023/03/26 09:25:15;;;;;;;2.80;1.10;;;18.00;46.70;;;;;;4935192;29;20235;-78
2023/03/26 09:28:05;;;;;;;4.35;1.77;;;18.00;46.60;;;;;;4935338;29;20346;-79
2023/03/26 09:31:07;;;;;;;4.13;1.42;;;18.00;46.70;;;;;;5011964;28;20267;-77
2023/03/26 09:33:58;;;;;;;3.60;1.55;;;18.00;46.70;;;;;;5012614;28;20602;-79
2023/03/26 09:36:56;;;;;;;2.58;1.30;;;18.00;46.70;;;;;;5008057;28;20789;-79
2023/03/26 09:39:36;;;;;;;3.97;1.48;;;18.00;46.70;;;;;;5066396;28;20244;-79
2023/03/26 09:42:12;;;;;;;2.67;1.50;;;18.00;46.70;;;;;;5092593;28;20244;-79
2023/03/26 09:45:10;;;;;;;7.30;1.55;;;18.00;46.70;;;;;;5092274;28;20190;-79
2023/03/26 09:48:13;;;;;;;4.72;1.42;;;18.00;46.70;;;;;;5075571;28;20197;-79
2023/03/26 09:51:00;;;;;;;4.05;1.30;;;18.00;46.70;;;;;;5092226;28;20225;-79
2023/03/26 09:53:50;;;;;;;4.28;1.40;;;18.00;46.80;;;;;;5121620;27;20613;-78
2023/03/26 09:56:29;;;;;;;5.43;1.67;;;18.00;46.70;;;;;;5156201;27;20635;-78
2023/03/26 09:59:15;;;;;;;6.82;1.95;;;18.00;46.70;;;;;;5156015;27;20191;-79
2023/03/26 10:01:51;;;;;;;4.28;1.40;;;18.00;46.70;;;;;;5156207;27;20307;-79
2023/03/26 10:04:39;;;;;;;3.90;1.70;;;18.00;46.70;;;;;;5155886;27;20232;-78
2023/03/26 10:07:16;;;;;;;6.30;1.70;;;18.00;46.70;;;;;;5156129;27;20596;-79
2023/03/26 10:09:53;;;;;;;4.95;1.52;;;18.00;46.70;;;;;;5156132;27;20565;-78
2023/03/26 10:12:30;;;;;;;3.08;1.25;;;18.00;46.70;;;;;;5155802;27;20226;-78
2023/03/26 10:15:13;;;;;;;6.47;1.70;;;18.00;46.70;;;;;;5155656;27;20187;-78
2023/03/26 10:17:56;;;;;;;3.65;1.50;;;18.00;46.80;;;;;;5156056;27;20203;-79
2023/03/26 10:20:36;;;;;;;4.88;1.50;;;18.00;46.80;;;;;;5155351;27;20223;-77
2023/03/26 10:23:24;;;;;;;6.43;1.60;;;18.00;46.80;;;;;;5155858;27;20212;-78
2023/03/26 10:26:08;;;;;;;7.13;1.73;;;18.00;46.80;;;;;;5155575;27;20228;-78
2023/03/26 10:28:50;;;;;;;6.57;1.90;;;18.00;46.70;;;;;;5154686;27;20183;-79
2023/03/26 10:31:34;;;;;;;4.85;1.25;;;18.00;46.80;;;;;;5155833;27;20214;-78
2023/03/26 10:34:14;;;;;;;3.03;1.40;;;18.00;46.80;;;;;;5155885;27;20183;-78
2023/03/26 10:36:51;;;;;;;6.57;1.92;;;18.00;46.80;;;;;;5155523;27;20253;-79
2023/03/26 10:39:34;;;;;;;6.70;2.25;;;18.00;46.80;;;;;;5155473;27;20187;-78
2023/03/26 10:42:13;;;;;;;5.82;1.90;;;18.00;46.80;;;;;;5155226;27;20294;-78
2023/03/26 10:44:55;;;;;;;5.28;1.40;;;18.00;46.80;;;;;;5154936;27;20594;-77
2023/03/26 10:47:41;;;;;;;7.80;1.95;;;18.00;46.80;;;;;;5155082;27;20219;-74
2023/03/26 10:50:42;;;;;;;5.05;1.50;;;18.00;46.80;;;;;;5155141;27;20622;-78
2023/03/26 10:53:20;;;;;;;5.53;1.25;;;18.00;46.80;;;;;;5154366;27;20677;-79
2023/03/26 10:55:53;;;;;;;3.97;1.50;;;18.00;46.80;;;;;;5155193;27;20211;-79
2023/03/26 10:58:25;;;;;;;5.75;1.58;;;18.00;46.80;;;;;;5155441;27;20229;-77
2023/03/26 11:00:57;;;;;;;4.40;1.77;;;18.00;46.80;;;;;;5155072;27;20211;-79
2023/03/26 11:03:51;;;;;;;5.72;1.50;;;18.00;46.80;;;;;;5154553;27;20590;-79
2023/03/26 11:06:38;;;;;;;4.82;1.33;;;18.00;46.90;;;;;;5154340;27;20292;-77
2023/03/26 11:09:21;;;;;;;5.22;1.35;;;17.90;47.10;;;;;;5153123;27;20188;-79
2023/03/26 11:11:55;;;;;;;4.25;1.13;;;18.00;46.90;;;;;;5154437;27;20716;-78
2023/03/26 11:14:28;;;;;;;4.47;1.58;;;17.90;46.70;;;;;;5154424;27;20202;-79
2023/03/26 11:17:02;;;;;;;5.95;1.38;;;18.00;46.80;;;;;;5154593;27;20219;-78
2023/03/26 11:19:38;;;;;;;5.03;1.58;;;18.00;46.80;;;;;;5154418;27;20183;-78
2023/03/26 11:22:22;;;;;;;4.97;1.58;;;18.00;46.80;;;;;;5154734;27;20211;-78
2023/03/26 11:25:03;;;;;;;3.70;1.23;;;18.00;46.90;;;;;;5154955;27;20222;-78
2023/03/26 11:27:43;;;;;;;5.28;1.50;;;18.00;46.90;;;;;;5154603;27;20269;-78
2023/03/26 11:30:23;;;;;;;7.03;1.70;;;17.90;46.70;;;;;;5154802;27;20754;-77
2023/03/26 11:32:54;;;;;;;4.15;1.50;;;18.00;46.80;;;;;;5154430;27;20199;-79
2023/03/26 11:35:26;;;;;;;6.93;1.65;;;18.00;46.80;;;;;;5154005;27;20188;-79
2023/03/26 11:37:57;;;;;;;5.47;1.50;;;18.00;46.80;;;;;;5154364;27;20283;-79
2023/03/26 11:40:31;;;;;;;6.13;1.60;;;18.00;46.80;;;;;;5154137;27;20274;-79
2023/03/26 11:43:02;;;;;;;5.10;1.42;;;17.90;46.70;;;;;;5153967;27;20187;-78
2023/03/26 11:45:34;;;;;;;5.25;1.70;;;17.90;46.70;;;;;;5154162;27;20600;-79
2023/03/26 11:48:08;;;;;;;3.17;1.35;;;17.90;46.70;;;;;;5154338;27;20645;-78
2023/03/26 11:50:50;;;;;;;3.63;1.65;;;17.90;46.70;;;;;;5153903;27;20768;-79
2023/03/26 11:53:22;;;;;;;4.15;1.40;;;18.00;46.80;;;;;;5154171;27;20194;-78
2023/03/26 11:55:57;;;;;;;4.88;1.42;;;18.00;46.80;;;;;;5154148;27;20223;-78
2023/03/26 11:58:30;;;;;;;4.05;1.50;;;17.90;46.70;;;;;;5153670;27;20613;-78
2023/03/26 12:00:58;;;;;;;6.03;1.33;;;18.00;46.90;;;;;;5153818;27;20763;-75
2023/03/26 12:03:29;;;;;;;5.13;1.40;;;18.00;46.80;;;;;;5153924;27;20261;-78
2023/03/26 12:06:02;;;;;;;5.75;1.50;;;17.90;46.70;;;;;;5153724;27;20245;-79
2023/03/26 12:08:34;;;;;;;7.35;1.50;;;18.00;46.90;;;;;;5154361;27;20187;-79
2023/03/26 12:11:07;;;;;;;6.68;1.52;;;17.90;46.80;;;;;;5154340;27;20223;-78
2023/03/26 12:13:38;;;;;;;5.45;1.42;;;18.00;46.80;;;;;;5154343;27;20244;-78
2023/03/26 12:16:10;;;;;;;5.97;1.58;;;18.00;46.80;;;;;;5153836;27;20212;-77
2023/03/26 12:18:40;;;;;;;7.88;1.77;;;17.90;46.70;;;;;;5154026;27;20207;-75
2023/03/26 12:21:09;;;;;;;6.15;1.55;;;17.90;46.70;;;;;;5153900;27;20220;-78
2023/03/26 12:23:44;;;;;;;4.22;1.20;;;17.90;46.70;;;;;;5153554;27;20195;-74
2023/03/26 12:26:16;;;;;;;5.50;1.52;;;18.00;46.90;;;;;;5153462;27;20707;-78
2023/03/26 12:28:48;;;;;;;7.93;2.13;;;18.00;46.90;;;;;;5153375;27;20658;-77
2023/03/26 12:31:17;;;;;;;4.15;1.65;;;17.90;46.80;;;;;;5153514;27;20211;-76
2023/03/26 12:33:51;;;;;;;6.85;1.45;;;18.00;46.80;;;;;;5154160;27;20275;-79
2023/03/26 12:36:25;;;;;;;6.85;1.67;;;18.00;46.90;;;;;;5153797;27;20585;-78
2023/03/26 12:38:54;;;;;;;7.90;1.60;;;17.90;46.80;;;;;;5153511;27;20188;-76
2023/03/26 12:41:34;;;;;;;3.92;1.40;;;17.90;47.50;;;;;;5153749;27;20222;-78
2023/03/26 12:44:23;;;;;;;9.10;1.52;;;17.90;46.90;;;;;;5153605;27;20223;-78
2023/03/26 12:46:53;;;;;;;6.15;1.30;;;18.00;46.90;;;;;;5153328;27;20255;-78
2023/03/26 12:49:21;;;;;;;5.65;1.40;;;17.90;46.90;;;;;;5154041;27;20184;-78
2023/03/26 12:51:55;;;;;;;8.18;1.70;;;17.90;46.90;;;;;;5154809;27;20211;-78
2023/03/26 12:54:44;;;;;;;4.97;1.88;;;17.90;46.90;;;;;;5157517;27;20199;-78
2023/03/26 12:57:19;;;;;;;6.75;1.55;;;18.00;47.00;;;;;;5157577;27;20266;-76
2023/03/26 13:00:29;;;;;;;4.75;1.50;;;17.90;46.90;;;;;;5157209;27;20179;-78
2023/03/26 13:03:20;;;;;;;6.00;1.42;;;17.90;47.00;;;;;;5136745;27;20215;-78
2023/03/26 13:06:15;;;;;;;5.82;1.50;;;17.90;47.00;;;;;;5157380;27;20235;-79
2023/03/26 13:09:02;;;;;;;4.25;1.42;;;17.90;47.00;;;;;;5157310;27;20219;-78
2023/03/26 13:11:38;;;;;;;7.43;1.63;;;17.90;47.00;;;;;;5157606;27;20203;-78
2023/03/26 13:14:19;;;;;;;6.75;1.20;;;17.90;47.00;;;;;;5156874;27;20192;-78
2023/03/26 13:16:52;;;;;;;6.13;1.40;;;17.90;47.00;;;;;;5157183;27;20321;-78
2023/03/26 13:19:27;;;;;;;3.85;1.60;;;17.90;47.00;;;;;;5157083;27;20183;-78
2023/03/26 13:22:04;;;;;;;6.15;1.60;;;17.90;47.10;;;;;;5157274;27;20215;-78
2023/03/26 13:24:43;;;;;;;5.88;1.45;;;17.90;47.00;;;;;;5157032;27;20198;-78